sensor_id;sensor_type;location;lat;lon;timestamp;P1;durP1;ratioP1;P2;durP2;ratioP2
18647;SDS011;9453;50.294;18.644;2023-04-23T04:02:17;20.50;;;10.37;;
18647;SDS011;9453;50.294;18.644;2023-04-23T04:04:45;23.43;;;10.90;;
18647;SDS011;9453;50.294;18.644;2023-04-23T04:07:13;23.60;;;11.97;;
18647;SDS011;9453;50.294;18.644;2023-04-23T04:09:40;22.97;;;12.43;;
18647;SDS011;9453;50.294;18.644;2023-04-23T04:12:07;28.13;;;11.93;;
18647;SDS011;9453;50.294;18.644;2023-04-23T04:14:34;29.43;;;12.30;;
18647;SDS011;9453;50.294;18.644;2023-04-23T04:17:01;27.23;;;13.83;;
18647;SDS011;9453;50.294;18.644;2023-04-23T04:19:31;34.40;;;14.70;;
18647;SDS011;9453;50.294;18.644;2023-04-23T04:21:58;27.83;;;12.53;;
18647;SDS011;9453;50.294;18.644;2023-04-23T04:24:27;26.60;;;12.17;;
18647;SDS011;9453;50.294;18.644;2023-04-23T04:26:56;27.67;;;12.17;;
18647;SDS011;9453;50.294;18.644;2023-04-23T04:29:24;24.90;;;12.23;;
18647;SDS011;9453;50.294;18.644;2023-04-23T04:31:51;27.10;;;13.60;;
18647;SDS011;9453;50.294;18.644;2023-04-23T04:34:18;25.23;;;12.87;;
18647;SDS011;9453;50.294;18.644;2023-04-23T04:36:47;28.27;;;13.90;;
18647;SDS011;9453;50.294;18.644;2023-04-23T04:39:15;27.33;;;14.47;;
18647;SDS011;9453;50.294;18.644;2023-04-23T04:41:43;26.83;;;14.03;;
18647;SDS011;9453;50.294;18.644;2023-04-23T04:44:10;31.43;;;13.67;;
18647;SDS011;9453;50.294;18.644;2023-04-23T04:46:38;24.67;;;12.57;;
18647;SDS011;9453;50.294;18.644;2023-04-23T04:49:06;27.43;;;12.90;;
18647;SDS011;9453;50.294;18.644;2023-04-23T04:51:35;26.93;;;14.10;;
18647;SDS011;9453;50.294;18.644;2023-04-23T04:54:03;25.17;;;13.10;;
18647;SDS011;9453;50.294;18.644;2023-04-23T04:56:31;32.60;;;16.13;;
18647;SDS011;9453;50.294;18.644;2023-04-23T04:58:58;32.07;;;15.20;;
18647;SDS011;9453;50.294;18.644;2023-04-23T05:01:25;34.87;;;15.77;;
18647;SDS011;9453;50.294;18.644;2023-04-23T05:03:52;28.67;;;14.80;;
18647;SDS011;9453;50.294;18.644;2023-04-23T05:06:20;27.87;;;15.03;;
18647;SDS011;9453;50.294;18.644;2023-04-23T05:08:47;28.40;;;13.63;;
18647;SDS011;9453;50.294;18.644;2023-04-23T05:11:15;26.50;;;13.63;;
18647;SDS011;9453;50.294;18.644;2023-04-23T05:13:42;26.60;;;13.10;;
18647;SDS011;9453;50.294;18.644;2023-04-23T05:16:10;25.30;;;12.73;;
18647;SDS011;9453;50.294;18.644;2023-04-23T05:18:37;29.37;;;14.30;;
18647;SDS011;9453;50.294;18.644;2023-04-23T05:21:04;29.13;;;13.73;;
18647;SDS011;9453;50.294;18.644;2023-04-23T05:23:32;27.07;;;12.93;;
18647;SDS011;9453;50.294;18.644;2023-04-23T05:26:01;28.40;;;14.00;;
18647;SDS011;9453;50.294;18.644;2023-04-23T05:28:30;33.23;;;14.73;;
18647;SDS011;9453;50.294;18.644;2023-04-23T05:30:57;28.00;;;13.67;;
18647;SDS011;9453;50.294;18.644;2023-04-23T05:33:24;26.10;;;12.53;;
18647;SDS011;9453;50.294;18.644;2023-04-23T05:35:52;23.10;;;11.40;;
18647;SDS011;9453;50.294;18.644;2023-04-23T05:38:19;21.67;;;10.93;;
18647;SDS011;9453;50.294;18.644;2023-04-23T05:40:46;22.37;;;10.50;;
18647;SDS011;9453;50.294;18.644;2023-04-23T05:43:13;27.27;;;12.17;;
18647;SDS011;9453;50.294;18.644;2023-04-23T05:45:42;24.27;;;11.47;;
18647;SDS011;9453;50.294;18.644;2023-04-23T05:48:08;18.57;;;10.40;;
18647;SDS011;9453;50.294;18.644;2023-04-23T05:50:36;17.80;;;8.87;;
18647;SDS011;9453;50.294;18.644;2023-04-23T05:53:03;17.77;;;9.10;;
18647;SDS011;9453;50.294;18.644;2023-04-23T05:55:30;17.30;;;9.37;;
18647;SDS011;9453;50.294;18.644;2023-04-23T05:57:57;18.80;;;9.10;;
18647;SDS011;9453;50.294;18.644;2023-04-23T06:00:24;17.43;;;8.90;;
18647;SDS011;9453;50.294;18.644;2023-04-23T06:02:52;17.83;;;8.63;;
18647;SDS011;9453;50.294;18.644;2023-04-23T06:05:19;15.13;;;8.07;;
18647;SDS011;9453;50.294;18.644;2023-04-23T06:07:46;18.27;;;8.20;;
18647;SDS011;9453;50.294;18.644;2023-04-23T06:10:13;17.73;;;8.80;;
18647;SDS011;9453;50.294;18.644;2023-04-23T06:12:40;17.87;;;8.10;;
18647;SDS011;9453;50.294;18.644;2023-04-23T06:15:07;17.50;;;7.63;;
18647;SDS011;9453;50.294;18.644;2023-04-23T06:17:35;15.67;;;8.10;;
18647;SDS011;9453;50.294;18.644;2023-04-23T06:20:04;19.43;;;7.53;;
18647;SDS011;9453;50.294;18.644;2023-04-23T06:22:33;16.67;;;7.47;;
18647;SDS011;9453;50.294;18.644;2023-04-23T06:25:00;13.33;;;6.63;;
18647;SDS011;9453;50.294;18.644;2023-04-23T06:27:26;14.13;;;6.68;;
18647;SDS011;9453;50.294;18.644;2023-04-23T06:29:53;16.42;;;7.50;;
18647;SDS011;9453;50.294;18.644;2023-04-23T06:32:21;12.77;;;6.30;;
18647;SDS011;9453;50.294;18.644;2023-04-23T06:34:48;11.32;;;6.10;;
18647;SDS011;9453;50.294;18.644;2023-04-23T06:37:16;10.88;;;5.93;;
18647;SDS011;9453;50.294;18.644;2023-04-23T06:39:43;13.55;;;5.63;;
18647;SDS011;9453;50.294;18.644;2023-04-23T06:42:10;10.02;;;5.53;;
18647;SDS011;9453;50.294;18.644;2023-04-23T06:44:37;14.07;;;5.70;;
18647;SDS011;9453;50.294;18.644;2023-04-23T06:47:04;10.40;;;6.05;;
18647;SDS011;9453;50.294;18.644;2023-04-23T06:49:31;12.82;;;6.13;;
18647;SDS011;9453;50.294;18.644;2023-04-23T06:51:58;9.32;;;5.13;;
18647;SDS011;9453;50.294;18.644;2023-04-23T06:54:26;15.23;;;6.30;;
18647;SDS011;9453;50.294;18.644;2023-04-23T06:56:53;9.43;;;4.88;;
18647;SDS011;9453;50.294;18.644;2023-04-23T06:59:21;10.90;;;5.60;;
18647;SDS011;9453;50.294;18.644;2023-04-23T07:01:47;14.00;;;5.65;;
18647;SDS011;9453;50.294;18.644;2023-04-23T07:04:14;15.82;;;7.07;;
18647;SDS011;9453;50.294;18.644;2023-04-23T07:06:41;14.30;;;6.20;;
18647;SDS011;9453;50.294;18.644;2023-04-23T07:09:08;21.85;;;6.45;;
18647;SDS011;9453;50.294;18.644;2023-04-23T07:11:36;12.25;;;5.30;;
18647;SDS011;9453;50.294;18.644;2023-04-23T07:14:04;11.27;;;6.05;;
18647;SDS011;9453;50.294;18.644;2023-04-23T07:16:30;9.10;;;5.35;;
18647;SDS011;9453;50.294;18.644;2023-04-23T07:18:58;14.20;;;7.50;;
18647;SDS011;9453;50.294;18.644;2023-04-23T07:21:26;13.55;;;6.32;;
18647;SDS011;9453;50.294;18.644;2023-04-23T07:23:54;10.20;;;5.57;;
18647;SDS011;9453;50.294;18.644;2023-04-23T07:26:22;10.70;;;5.35;;
18647;SDS011;9453;50.294;18.644;2023-04-23T07:28:51;11.20;;;5.18;;
18647;SDS011;9453;50.294;18.644;2023-04-23T07:31:18;10.15;;;5.00;;
18647;SDS011;9453;50.294;18.644;2023-04-23T07:33:46;11.00;;;5.80;;
18647;SDS011;9453;50.294;18.644;2023-04-23T07:36:13;11.10;;;6.13;;
18647;SDS011;9453;50.294;18.644;2023-04-23T07:38:39;10.15;;;5.32;;
18647;SDS011;9453;50.294;18.644;2023-04-23T07:41:07;6.88;;;4.15;;
18647;SDS011;9453;50.294;18.644;2023-04-23T07:43:34;10.60;;;5.00;;
18647;SDS011;9453;50.294;18.644;2023-04-23T07:46:02;9.98;;;5.20;;
18647;SDS011;9453;50.294;18.644;2023-04-23T07:48:30;8.07;;;4.90;;
18647;SDS011;9453;50.294;18.644;2023-04-23T07:50:58;8.50;;;4.25;;
18647;SDS011;9453;50.294;18.644;2023-04-23T07:53:25;9.15;;;4.20;;
18647;SDS011;9453;50.294;18.644;2023-04-23T07:55:52;12.30;;;4.82;;
18647;SDS011;9453;50.294;18.644;2023-04-23T07:58:19;7.88;;;3.83;;
18647;SDS011;9453;50.294;18.644;2023-04-23T08:00:46;10.75;;;4.72;;
18647;SDS011;9453;50.294;18.644;2023-04-23T08:03:15;6.32;;;3.95;;
18647;SDS011;9453;50.294;18.644;2023-04-23T08:05:42;9.27;;;3.80;;
18647;SDS011;9453;50.294;18.644;2023-04-23T08:08:09;7.05;;;3.42;;
18647;SDS011;9453;50.294;18.644;2023-04-23T08:10:38;11.15;;;3.53;;
18647;SDS011;9453;50.294;18.644;2023-04-23T08:13:05;10.05;;;4.35;;
18647;SDS011;9453;50.294;18.644;2023-04-23T08:15:33;7.80;;;3.85;;
18647;SDS011;9453;50.294;18.644;2023-04-23T08:18:00;7.38;;;3.78;;
18647;SDS011;9453;50.294;18.644;2023-04-23T08:20:32;8.95;;;4.00;;
18647;SDS011;9453;50.294;18.644;2023-04-23T08:22:59;7.70;;;3.95;;
18647;SDS011;9453;50.294;18.644;2023-04-23T08:25:26;8.27;;;3.60;;
18647;SDS011;9453;50.294;18.644;2023-04-23T08:27:53;6.10;;;3.45;;
18647;SDS011;9453;50.294;18.644;2023-04-23T08:30:20;10.73;;;3.95;;
18647;SDS011;9453;50.294;18.644;2023-04-23T08:32:48;7.20;;;4.00;;
18647;SDS011;9453;50.294;18.644;2023-04-23T08:35:18;10.27;;;3.35;;
18647;SDS011;9453;50.294;18.644;2023-04-23T08:37:46;8.40;;;3.42;;
18647;SDS011;9453;50.294;18.644;2023-04-23T08:40:13;13.18;;;4.07;;
18647;SDS011;9453;50.294;18.644;2023-04-23T08:42:41;5.93;;;3.28;;
18647;SDS011;9453;50.294;18.644;2023-04-23T08:45:10;7.43;;;3.65;;
18647;SDS011;9453;50.294;18.644;2023-04-23T08:47:38;5.93;;;3.33;;
18647;SDS011;9453;50.294;18.644;2023-04-23T08:50:07;5.15;;;2.90;;
18647;SDS011;9453;50.294;18.644;2023-04-23T08:52:37;4.50;;;2.95;;
18647;SDS011;9453;50.294;18.644;2023-04-23T08:55:08;5.25;;;3.00;;
18647;SDS011;9453;50.294;18.644;2023-04-23T08:57:36;7.45;;;2.58;;
18647;SDS011;9453;50.294;18.644;2023-04-23T09:00:05;9.07;;;3.58;;
18647;SDS011;9453;50.294;18.644;2023-04-23T09:02:34;7.20;;;3.13;;
18647;SDS011;9453;50.294;18.644;2023-04-23T09:05:02;6.63;;;3.00;;
18647;SDS011;9453;50.294;18.644;2023-04-23T09:07:32;6.05;;;3.00;;
18647;SDS011;9453;50.294;18.644;2023-04-23T09:10:00;6.15;;;3.05;;
18647;SDS011;9453;50.294;18.644;2023-04-23T09:12:29;5.47;;;2.63;;
18647;SDS011;9453;50.294;18.644;2023-04-23T09:14:56;5.35;;;2.55;;
18647;SDS011;9453;50.294;18.644;2023-04-23T09:17:24;4.38;;;2.53;;
18647;SDS011;9453;50.294;18.644;2023-04-23T09:19:54;7.65;;;2.70;;
18647;SDS011;9453;50.294;18.644;2023-04-23T09:25:13;7.35;;;2.88;;
18647;SDS011;9453;50.294;18.644;2023-04-23T09:27:43;6.18;;;2.72;;
18647;SDS011;9453;50.294;18.644;2023-04-23T09:30:11;5.07;;;2.50;;
18647;SDS011;9453;50.294;18.644;2023-04-23T09:32:39;5.72;;;2.97;;
18647;SDS011;9453;50.294;18.644;2023-04-23T09:35:07;5.82;;;2.25;;
18647;SDS011;9453;50.294;18.644;2023-04-23T09:37:35;6.05;;;3.08;;
18647;SDS011;9453;50.294;18.644;2023-04-23T09:40:03;4.53;;;2.70;;
18647;SDS011;9453;50.294;18.644;2023-04-23T09:42:32;5.15;;;2.30;;
18647;SDS011;9453;50.294;18.644;2023-04-23T09:45:03;4.55;;;2.45;;
18647;SDS011;9453;50.294;18.644;2023-04-23T09:47:31;3.70;;;2.22;;
18647;SDS011;9453;50.294;18.644;2023-04-23T09:49:59;4.85;;;2.40;;
18647;SDS011;9453;50.294;18.644;2023-04-23T09:52:26;6.13;;;2.50;;
18647;SDS011;9453;50.294;18.644;2023-04-23T09:54:56;4.18;;;2.20;;
18647;SDS011;9453;50.294;18.644;2023-04-23T09:57:24;5.82;;;2.13;;
18647;SDS011;9453;50.294;18.644;2023-04-23T09:59:51;5.70;;;2.53;;
18647;SDS011;9453;50.294;18.644;2023-04-23T10:02:19;3.80;;;2.20;;
18647;SDS011;9453;50.294;18.644;2023-04-23T10:04:51;6.28;;;2.53;;
18647;SDS011;9453;50.294;18.644;2023-04-23T10:07:18;6.13;;;2.80;;
18647;SDS011;9453;50.294;18.644;2023-04-23T10:09:46;5.47;;;2.33;;
18647;SDS011;9453;50.294;18.644;2023-04-23T10:12:13;4.88;;;2.50;;
18647;SDS011;9453;50.294;18.644;2023-04-23T10:14:40;7.45;;;3.22;;
18647;SDS011;9453;50.294;18.644;2023-04-23T10:17:09;9.00;;;3.08;;
18647;SDS011;9453;50.294;18.644;2023-04-23T10:19:38;5.30;;;2.60;;
18647;SDS011;9453;50.294;18.644;2023-04-23T10:22:07;3.95;;;2.15;;
18647;SDS011;9453;50.294;18.644;2023-04-23T10:24:38;5.75;;;2.60;;
18647;SDS011;9453;50.294;18.644;2023-04-23T10:27:12;5.78;;;3.05;;
18647;SDS011;9453;50.294;18.644;2023-04-23T10:29:41;8.70;;;2.83;;
18647;SDS011;9453;50.294;18.644;2023-04-23T10:32:09;5.85;;;2.67;;
18647;SDS011;9453;50.294;18.644;2023-04-23T10:34:38;13.50;;;2.75;;
18647;SDS011;9453;50.294;18.644;2023-04-23T10:37:06;6.03;;;2.97;;
18647;SDS011;9453;50.294;18.644;2023-04-23T10:39:35;9.55;;;3.03;;
18647;SDS011;9453;50.294;18.644;2023-04-23T10:42:03;5.43;;;2.70;;
18647;SDS011;9453;50.294;18.644;2023-04-23T10:44:31;4.65;;;2.80;;
18647;SDS011;9453;50.294;18.644;2023-04-23T10:47:02;5.60;;;2.55;;
18647;SDS011;9453;50.294;18.644;2023-04-23T10:49:31;6.22;;;2.63;;
18647;SDS011;9453;50.294;18.644;2023-04-23T10:52:01;5.57;;;2.67;;
18647;SDS011;9453;50.294;18.644;2023-04-23T10:54:32;5.40;;;2.50;;
18647;SDS011;9453;50.294;18.644;2023-04-23T10:57:00;4.07;;;2.67;;
18647;SDS011;9453;50.294;18.644;2023-04-23T10:59:29;6.03;;;2.42;;
18647;SDS011;9453;50.294;18.644;2023-04-23T11:01:57;18.17;;;3.22;;
18647;SDS011;9453;50.294;18.644;2023-04-23T11:04:35;5.47;;;2.53;;
18647;SDS011;9453;50.294;18.644;2023-04-23T11:07:08;4.75;;;2.78;;
18647;SDS011;9453;50.294;18.644;2023-04-23T11:09:37;12.35;;;2.80;;
18647;SDS011;9453;50.294;18.644;2023-04-23T11:12:06;6.43;;;3.10;;
18647;SDS011;9453;50.294;18.644;2023-04-23T11:14:35;6.18;;;2.60;;
18647;SDS011;9453;50.294;18.644;2023-04-23T11:17:12;4.30;;;2.42;;
18647;SDS011;9453;50.294;18.644;2023-04-23T11:19:40;8.25;;;2.63;;
18647;SDS011;9453;50.294;18.644;2023-04-23T11:22:34;5.55;;;2.67;;
18647;SDS011;9453;50.294;18.644;2023-04-23T11:25:02;9.88;;;2.83;;
18647;SDS011;9453;50.294;18.644;2023-04-23T11:27:30;8.18;;;2.83;;
18647;SDS011;9453;50.294;18.644;2023-04-23T11:29:57;5.57;;;3.03;;
18647;SDS011;9453;50.294;18.644;2023-04-23T11:32:24;5.57;;;2.45;;
18647;SDS011;9453;50.294;18.644;2023-04-23T11:34:53;6.63;;;2.60;;
18647;SDS011;9453;50.294;18.644;2023-04-23T11:37:22;5.93;;;2.40;;
18647;SDS011;9453;50.294;18.644;2023-04-23T11:39:51;6.60;;;2.47;;
18647;SDS011;9453;50.294;18.644;2023-04-23T11:42:20;6.53;;;2.55;;
18647;SDS011;9453;50.294;18.644;2023-04-23T11:44:47;9.57;;;2.30;;
18647;SDS011;9453;50.294;18.644;2023-04-23T11:47:15;4.35;;;2.40;;
18647;SDS011;9453;50.294;18.644;2023-04-23T11:49:42;5.47;;;2.80;;
18647;SDS011;9453;50.294;18.644;2023-04-23T11:52:10;4.85;;;2.55;;
18647;SDS011;9453;50.294;18.644;2023-04-23T11:54:38;3.88;;;2.47;;
18647;SDS011;9453;50.294;18.644;2023-04-23T11:57:07;6.90;;;2.97;;
18647;SDS011;9453;50.294;18.644;2023-04-23T11:59:35;4.47;;;2.38;;
18647;SDS011;9453;50.294;18.644;2023-04-23T12:02:02;3.88;;;2.20;;
18647;SDS011;9453;50.294;18.644;2023-04-23T12:04:29;3.42;;;2.15;;
18647;SDS011;9453;50.294;18.644;2023-04-23T12:06:57;4.47;;;2.10;;
18647;SDS011;9453;50.294;18.644;2023-04-23T12:09:26;3.80;;;2.40;;
18647;SDS011;9453;50.294;18.644;2023-04-23T12:11:54;8.73;;;2.83;;
18647;SDS011;9453;50.294;18.644;2023-04-23T12:14:26;4.25;;;2.47;;
18647;SDS011;9453;50.294;18.644;2023-04-23T12:16:54;3.00;;;2.05;;
18647;SDS011;9453;50.294;18.644;2023-04-23T12:19:25;4.35;;;2.47;;
18647;SDS011;9453;50.294;18.644;2023-04-23T12:21:53;3.67;;;2.13;;
18647;SDS011;9453;50.294;18.644;2023-04-23T12:24:22;5.82;;;2.38;;
18647;SDS011;9453;50.294;18.644;2023-04-23T12:26:51;4.75;;;2.40;;
18647;SDS011;9453;50.294;18.644;2023-04-23T12:29:20;3.97;;;2.58;;
18647;SDS011;9453;50.294;18.644;2023-04-23T12:31:49;4.40;;;2.50;;
18647;SDS011;9453;50.294;18.644;2023-04-23T12:34:17;4.13;;;2.45;;
18647;SDS011;9453;50.294;18.644;2023-04-23T12:36:45;5.57;;;2.28;;
18647;SDS011;9453;50.294;18.644;2023-04-23T12:39:24;4.65;;;2.30;;
18647;SDS011;9453;50.294;18.644;2023-04-23T12:41:55;3.72;;;2.00;;
18647;SDS011;9453;50.294;18.644;2023-04-23T12:44:26;3.58;;;2.00;;
18647;SDS011;9453;50.294;18.644;2023-04-23T12:46:58;5.25;;;2.53;;
18647;SDS011;9453;50.294;18.644;2023-04-23T12:49:27;3.78;;;2.38;;
18647;SDS011;9453;50.294;18.644;2023-04-23T12:51:57;3.78;;;2.28;;
18647;SDS011;9453;50.294;18.644;2023-04-23T12:54:26;4.13;;;1.98;;
18647;SDS011;9453;50.294;18.644;2023-04-23T12:56:53;6.07;;;2.38;;
18647;SDS011;9453;50.294;18.644;2023-04-23T12:59:20;5.15;;;2.55;;
18647;SDS011;9453;50.294;18.644;2023-04-23T13:01:48;6.93;;;1.80;;
18647;SDS011;9453;50.294;18.644;2023-04-23T13:04:17;6.63;;;3.08;;
18647;SDS011;9453;50.294;18.644;2023-04-23T13:06:44;4.55;;;2.53;;
18647;SDS011;9453;50.294;18.644;2023-04-23T13:09:11;3.20;;;2.05;;
18647;SDS011;9453;50.294;18.644;2023-04-23T13:11:39;3.38;;;2.13;;
18647;SDS011;9453;50.294;18.644;2023-04-23T13:14:06;6.10;;;1.90;;
18647;SDS011;9453;50.294;18.644;2023-04-23T13:16:34;3.67;;;1.83;;
18647;SDS011;9453;50.294;18.644;2023-04-23T13:19:01;5.35;;;2.17;;
18647;SDS011;9453;50.294;18.644;2023-04-23T13:21:30;4.88;;;2.10;;
18647;SDS011;9453;50.294;18.644;2023-04-23T13:23:56;4.20;;;2.13;;
18647;SDS011;9453;50.294;18.644;2023-04-23T13:26:23;8.93;;;2.25;;
18647;SDS011;9453;50.294;18.644;2023-04-23T13:28:53;5.05;;;2.25;;
18647;SDS011;9453;50.294;18.644;2023-04-23T13:31:20;3.38;;;1.95;;
18647;SDS011;9453;50.294;18.644;2023-04-23T13:33:47;3.63;;;2.15;;
18647;SDS011;9453;50.294;18.644;2023-04-23T13:36:14;3.92;;;2.20;;
18647;SDS011;9453;50.294;18.644;2023-04-23T13:38:42;3.85;;;2.10;;
18647;SDS011;9453;50.294;18.644;2023-04-23T13:41:09;3.10;;;2.10;;
18647;SDS011;9453;50.294;18.644;2023-04-23T13:43:36;8.00;;;2.83;;
18647;SDS011;9453;50.294;18.644;2023-04-23T13:46:04;7.00;;;3.08;;
18647;SDS011;9453;50.294;18.644;2023-04-23T13:48:31;3.50;;;2.17;;
18647;SDS011;9453;50.294;18.644;2023-04-23T13:50:59;4.85;;;2.22;;
18647;SDS011;9453;50.294;18.644;2023-04-23T13:53:26;3.28;;;1.92;;
18647;SDS011;9453;50.294;18.644;2023-04-23T13:55:55;5.97;;;2.25;;
18647;SDS011;9453;50.294;18.644;2023-04-23T13:58:22;7.60;;;2.70;;
18647;SDS011;9453;50.294;18.644;2023-04-23T14:00:49;4.50;;;2.20;;
18647;SDS011;9453;50.294;18.644;2023-04-23T14:03:16;4.32;;;2.22;;
18647;SDS011;9453;50.294;18.644;2023-04-23T14:05:44;3.88;;;2.20;;
18647;SDS011;9453;50.294;18.644;2023-04-23T14:08:11;5.38;;;2.45;;
18647;SDS011;9453;50.294;18.644;2023-04-23T14:10:38;4.32;;;2.00;;
18647;SDS011;9453;50.294;18.644;2023-04-23T14:13:07;4.15;;;2.50;;
18647;SDS011;9453;50.294;18.644;2023-04-23T14:15:34;5.18;;;2.80;;
18647;SDS011;9453;50.294;18.644;2023-04-23T14:18:01;8.65;;;2.40;;
18647;SDS011;9453;50.294;18.644;2023-04-23T14:20:29;4.43;;;2.60;;
18647;SDS011;9453;50.294;18.644;2023-04-23T14:23:00;3.40;;;2.28;;
18647;SDS011;9453;50.294;18.644;2023-04-23T14:25:29;3.63;;;2.13;;
18647;SDS011;9453;50.294;18.644;2023-04-23T14:28:07;5.88;;;2.05;;
18647;SDS011;9453;50.294;18.644;2023-04-23T14:30:49;6.55;;;2.42;;
18647;SDS011;9453;50.294;18.644;2023-04-23T14:33:16;3.35;;;2.10;;
18647;SDS011;9453;50.294;18.644;2023-04-23T14:35:42;7.03;;;3.00;;
18647;SDS011;9453;50.294;18.644;2023-04-23T14:38:12;7.40;;;2.20;;
18647;SDS011;9453;50.294;18.644;2023-04-23T14:40:39;6.05;;;2.30;;
18647;SDS011;9453;50.294;18.644;2023-04-23T14:43:06;4.72;;;2.10;;
18647;SDS011;9453;50.294;18.644;2023-04-23T14:45:35;2.83;;;1.95;;
18647;SDS011;9453;50.294;18.644;2023-04-23T14:48:02;5.80;;;1.83;;
18647;SDS011;9453;50.294;18.644;2023-04-23T14:50:29;4.50;;;1.92;;
18647;SDS011;9453;50.294;18.644;2023-04-23T14:52:56;5.43;;;2.05;;
18647;SDS011;9453;50.294;18.644;2023-04-23T14:55:23;4.85;;;2.10;;
18647;SDS011;9453;50.294;18.644;2023-04-23T14:57:50;3.10;;;2.08;;
18647;SDS011;9453;50.294;18.644;2023-04-23T15:00:18;2.38;;;1.98;;
18647;SDS011;9453;50.294;18.644;2023-04-23T15:02:47;5.43;;;2.22;;
18647;SDS011;9453;50.294;18.644;2023-04-23T15:05:14;3.20;;;1.85;;
18647;SDS011;9453;50.294;18.644;2023-04-23T15:07:41;4.40;;;2.30;;
18647;SDS011;9453;50.294;18.644;2023-04-23T15:10:09;4.15;;;2.05;;
18647;SDS011;9453;50.294;18.644;2023-04-23T15:12:42;6.07;;;1.88;;
18647;SDS011;9453;50.294;18.644;2023-04-23T15:15:19;4.85;;;2.05;;
18647;SDS011;9453;50.294;18.644;2023-04-23T15:17:52;5.30;;;1.90;;
18647;SDS011;9453;50.294;18.644;2023-04-23T15:20:19;5.55;;;2.03;;
18647;SDS011;9453;50.294;18.644;2023-04-23T15:22:46;6.15;;;2.55;;
18647;SDS011;9453;50.294;18.644;2023-04-23T15:25:14;3.42;;;2.10;;
18647;SDS011;9453;50.294;18.644;2023-04-23T15:27:41;3.60;;;2.42;;
18647;SDS011;9453;50.294;18.644;2023-04-23T15:30:09;6.30;;;2.50;;
18647;SDS011;9453;50.294;18.644;2023-04-23T15:32:36;3.85;;;2.45;;
18647;SDS011;9453;50.294;18.644;2023-04-23T15:35:05;7.15;;;2.83;;
18647;SDS011;9453;50.294;18.644;2023-04-23T15:37:33;3.45;;;2.50;;
18647;SDS011;9453;50.294;18.644;2023-04-23T15:40:00;6.75;;;2.70;;
18647;SDS011;9453;50.294;18.644;2023-04-23T15:42:27;4.32;;;2.60;;
18647;SDS011;9453;50.294;18.644;2023-04-23T15:44:54;4.20;;;2.30;;
18647;SDS011;9453;50.294;18.644;2023-04-23T15:47:21;3.53;;;2.40;;
18647;SDS011;9453;50.294;18.644;2023-04-23T15:49:48;3.78;;;2.50;;
18647;SDS011;9453;50.294;18.644;2023-04-23T15:52:17;4.88;;;2.00;;
18647;SDS011;9453;50.294;18.644;2023-04-23T15:54:44;3.95;;;2.38;;
18647;SDS011;9453;50.294;18.644;2023-04-23T15:57:11;8.30;;;2.47;;
18647;SDS011;9453;50.294;18.644;2023-04-23T15:59:38;3.83;;;2.63;;
18647;SDS011;9453;50.294;18.644;2023-04-23T16:02:05;6.05;;;2.58;;
18647;SDS011;9453;50.294;18.644;2023-04-23T16:04:32;7.38;;;2.88;;
18647;SDS011;9453;50.294;18.644;2023-04-23T16:06:59;6.35;;;2.88;;
18647;SDS011;9453;50.294;18.644;2023-04-23T16:09:27;5.30;;;2.72;;
18647;SDS011;9453;50.294;18.644;2023-04-23T16:11:54;5.53;;;2.70;;
18647;SDS011;9453;50.294;18.644;2023-04-23T16:14:21;2.67;;;2.13;;
18647;SDS011;9453;50.294;18.644;2023-04-23T16:16:48;8.68;;;2.60;;
18647;SDS011;9453;50.294;18.644;2023-04-23T16:19:15;6.15;;;2.72;;
18647;SDS011;9453;50.294;18.644;2023-04-23T16:21:42;4.40;;;2.80;;
18647;SDS011;9453;50.294;18.644;2023-04-23T16:24:10;8.30;;;2.78;;
18647;SDS011;9453;50.294;18.644;2023-04-23T16:26:39;5.25;;;2.78;;
18647;SDS011;9453;50.294;18.644;2023-04-23T16:29:06;5.13;;;2.88;;
18647;SDS011;9453;50.294;18.644;2023-04-23T16:31:33;8.60;;;2.33;;
18647;SDS011;9453;50.294;18.644;2023-04-23T16:34:00;10.55;;;3.20;;
18647;SDS011;9453;50.294;18.644;2023-04-23T16:36:27;6.65;;;2.75;;
18647;SDS011;9453;50.294;18.644;2023-04-23T16:38:56;8.02;;;3.08;;
18647;SDS011;9453;50.294;18.644;2023-04-23T16:41:22;6.90;;;2.90;;
18647;SDS011;9453;50.294;18.644;2023-04-23T16:43:51;4.53;;;2.70;;
18647;SDS011;9453;50.294;18.644;2023-04-23T16:46:18;8.05;;;2.60;;
18647;SDS011;9453;50.294;18.644;2023-04-23T16:48:45;8.18;;;3.42;;
18647;SDS011;9453;50.294;18.644;2023-04-23T16:51:12;5.47;;;2.92;;
18647;SDS011;9453;50.294;18.644;2023-04-23T16:53:39;5.70;;;2.58;;
18647;SDS011;9453;50.294;18.644;2023-04-23T16:56:06;9.10;;;3.05;;
18647;SDS011;9453;50.294;18.644;2023-04-23T16:58:33;6.97;;;3.22;;
18647;SDS011;9453;50.294;18.644;2023-04-23T17:01:02;6.43;;;3.08;;
18647;SDS011;9453;50.294;18.644;2023-04-23T17:03:29;5.88;;;2.85;;
18647;SDS011;9453;50.294;18.644;2023-04-23T17:06:06;4.20;;;2.45;;
18647;SDS011;9453;50.294;18.644;2023-04-23T17:08:35;6.65;;;2.95;;
18647;SDS011;9453;50.294;18.644;2023-04-23T17:11:03;5.05;;;2.92;;
18647;SDS011;9453;50.294;18.644;2023-04-23T17:13:31;5.57;;;2.90;;
18647;SDS011;9453;50.294;18.644;2023-04-23T17:15:58;4.70;;;2.60;;
18647;SDS011;9453;50.294;18.644;2023-04-23T17:18:28;6.28;;;3.28;;
18647;SDS011;9453;50.294;18.644;2023-04-23T17:20:55;8.52;;;3.30;;
18647;SDS011;9453;50.294;18.644;2023-04-23T17:23:25;5.47;;;2.80;;
18647;SDS011;9453;50.294;18.644;2023-04-23T17:25:55;9.75;;;3.80;;
18647;SDS011;9453;50.294;18.644;2023-04-23T17:28:22;6.72;;;3.20;;
18647;SDS011;9453;50.294;18.644;2023-04-23T17:30:53;5.53;;;2.55;;
18647;SDS011;9453;50.294;18.644;2023-04-23T17:33:23;8.43;;;2.92;;
18647;SDS011;9453;50.294;18.644;2023-04-23T17:35:52;4.47;;;2.53;;
18647;SDS011;9453;50.294;18.644;2023-04-23T17:38:21;6.70;;;3.25;;
18647;SDS011;9453;50.294;18.644;2023-04-23T17:40:50;5.28;;;2.83;;
18647;SDS011;9453;50.294;18.644;2023-04-23T17:43:20;6.35;;;3.00;;
18647;SDS011;9453;50.294;18.644;2023-04-23T17:45:58;4.88;;;2.80;;
18647;SDS011;9453;50.294;18.644;2023-04-23T17:48:25;7.00;;;3.67;;
18647;SDS011;9453;50.294;18.644;2023-04-23T17:50:55;7.45;;;4.28;;
18647;SDS011;9453;50.294;18.644;2023-04-23T17:53:25;11.63;;;5.32;;
18647;SDS011;9453;50.294;18.644;2023-04-23T17:55:52;11.55;;;5.40;;
18647;SDS011;9453;50.294;18.644;2023-04-23T17:58:23;15.20;;;7.22;;
18647;SDS011;9453;50.294;18.644;2023-04-23T18:00:50;14.05;;;7.20;;
18647;SDS011;9453;50.294;18.644;2023-04-23T18:03:18;13.52;;;6.63;;
18647;SDS011;9453;50.294;18.644;2023-04-23T18:05:45;19.10;;;5.93;;
18647;SDS011;9453;50.294;18.644;2023-04-23T18:08:14;13.95;;;5.47;;
18647;SDS011;9453;50.294;18.644;2023-04-23T18:10:43;11.25;;;5.13;;
18647;SDS011;9453;50.294;18.644;2023-04-23T18:13:11;8.48;;;4.40;;
18647;SDS011;9453;50.294;18.644;2023-04-23T18:15:38;12.82;;;4.35;;
18647;SDS011;9453;50.294;18.644;2023-04-23T18:18:06;9.40;;;4.10;;
18647;SDS011;9453;50.294;18.644;2023-04-23T18:20:33;8.15;;;3.88;;
18647;SDS011;9453;50.294;18.644;2023-04-23T18:23:02;7.85;;;3.65;;
18647;SDS011;9453;50.294;18.644;2023-04-23T18:25:31;8.15;;;3.30;;
18647;SDS011;9453;50.294;18.644;2023-04-23T18:27:58;6.40;;;3.60;;
18647;SDS011;9453;50.294;18.644;2023-04-23T18:30:25;6.85;;;3.45;;
18647;SDS011;9453;50.294;18.644;2023-04-23T18:32:58;6.07;;;3.00;;
18647;SDS011;9453;50.294;18.644;2023-04-23T18:35:27;5.78;;;2.55;;
18647;SDS011;9453;50.294;18.644;2023-04-23T18:37:58;4.57;;;2.78;;
18647;SDS011;9453;50.294;18.644;2023-04-23T18:40:27;7.15;;;3.67;;
18647;SDS011;9453;50.294;18.644;2023-04-23T18:42:55;4.90;;;3.03;;
18647;SDS011;9453;50.294;18.644;2023-04-23T18:45:22;10.52;;;3.92;;
18647;SDS011;9453;50.294;18.644;2023-04-23T18:47:50;7.65;;;4.07;;
18647;SDS011;9453;50.294;18.644;2023-04-23T18:50:28;7.47;;;3.67;;
18647;SDS011;9453;50.294;18.644;2023-04-23T18:53:00;9.48;;;5.18;;